Time;durP1;ratioP1;P1;durP2;ratioP2;P2;SDS_P1;SDS_P2;PMS_P1;PMS_P2;Temp;Humidity;BMP_temperature;BMP_pressure;BME280_temperature;BME280_humidity;BME280_pressure;Samples;Min_cycle;Max_cycle;Signal;HPM_P1;HPM_P2
2022/02/03 00:00:42;;;;;;;10.60;2.65;;;;;;;;;;5094191;28;20043;-34
2022/02/03 00:03:42;;;;;;;7.32;1.80;;;;;;;;;;5094621;28;20023;-34
2022/02/03 00:06:07;;;;;;;9.82;2.13;;;;;;;;;;5095365;28;20078;-34
2022/02/03 00:08:55;;;;;;;5.32;2.15;;;;;;;;;;5094721;28;20031;-34
2022/02/03 00:21:58;;;;;;;12.20;2.30;;;;;;;;;;5071459;28;20051;-34
2022/02/03 00:22:49;;;;;;;8.90;2.13;;;;;;;;;;5095703;28;20027;-35
2022/02/03 00:25:26;;;;;;;5.53;2.00;;;;;;;;;;5094332;28;20103;-34
2022/02/03 00:30:32;;;;;;;7.35;2.80;;;;;;;;;;5095522;28;20028;-34
2022/02/03 00:38:26;;;;;;;5.68;2.10;;;;;;;;;;5095272;28;20020;-34
2022/02/03 00:49:09;;;;;;;6.70;1.90;;;;;;;;;;5095162;28;20031;-34
2022/02/03 00:51:36;;;;;;;7.70;2.10;;;;;;;;;;5094990;28;20020;-34
2022/02/03 00:54:02;;;;;;;6.85;1.90;;;;;;;;;;5094779;28;20462;-35
2022/02/03 00:56:30;;;;;;;3.83;1.92;;;;;;;;;;5094599;28;20371;-35
2022/02/03 00:59:25;;;;;;;7.90;2.17;;;;;;;;;;5093491;28;20023;-34
2022/02/03 01:01:50;;;;;;;8.50;2.25;;;;;;;;;;5081433;28;20042;-34
2022/02/03 01:04:16;;;;;;;6.82;2.25;;;;;;;;;;5093560;28;20111;-34
2022/02/03 01:06:49;;;;;;;6.40;1.83;;;;;;;;;;5094547;28;20016;-35
2022/02/03 01:09:19;;;;;;;5.75;2.05;;;;;;;;;;5094616;28;20470;-34
2022/02/03 01:11:46;;;;;;;7.90;1.95;;;;;;;;;;5094481;28;20024;-34
2022/02/03 01:14:20;;;;;;;7.97;1.83;;;;;;;;;;5094501;28;20065;-35
2022/02/03 01:17:23;;;;;;;11.55;2.30;;;;;;;;;;5094396;28;20490;-35
2022/02/03 01:20:21;;;;;;;4.68;2.42;;;;;;;;;;5093628;28;20032;-35
2022/02/03 01:33:55;;;;;;;5.57;1.70;;;;;;;;;;5093803;28;20134;-34
2022/02/03 01:45:18;;;;;;;5.40;1.98;;;;;;;;;;5094112;28;20074;-34
2022/02/03 01:52:47;;;;;;;8.50;2.88;;;;;;;;;;5093699;28;20422;-35
2022/02/03 01:55:24;;;;;;;8.57;1.92;;;;;;;;;;5092704;28;20056;-34
2022/02/03 01:58:10;;;;;;;6.70;2.40;;;;;;;;;;5093653;28;20041;-34
2022/02/03 02:00:45;;;;;;;10.73;2.75;;;;;;;;;;5091506;28;20036;-34
2022/02/03 02:03:10;;;;;;;5.00;2.15;;;;;;;;;;5092327;28;20024;-35
2022/02/03 02:05:38;;;;;;;7.07;2.33;;;;;;;;;;5092426;28;20031;-34
2022/02/03 02:08:06;;;;;;;6.93;2.60;;;;;;;;;;5093494;28;20061;-35
2022/02/03 02:42:37;;;;;;;;;;;;;;;;;;5093493;28;20028;-34
2022/02/03 02:45:07;;;;;;;5.90;1.80;;;;;;;;;;5092854;28;19910;-34
2022/02/03 02:47:51;;;;;;;8.35;2.35;;;;;;;;;;5091874;28;20450;-35
2022/02/03 02:50:22;;;;;;;5.97;2.30;;;;;;;;;;5093081;28;20069;-34
2022/02/03 02:53:08;;;;;;;12.90;3.38;;;;;;;;;;5093103;28;20023;-34
2022/02/03 02:55:53;;;;;;;18.08;4.50;;;;;;;;;;5092758;28;20027;-34
2022/02/03 02:59:22;;;;;;;10.40;3.08;;;;;;;;;;5092902;28;20020;-35
2022/02/03 03:32:11;;;;;;;7.35;2.13;;;;;;;;;;5092764;28;20024;-34
2022/02/03 03:36:45;;;;;;;11.23;2.13;;;;;;;;;;5096570;28;20052;-34
2022/02/03 03:39:12;;;;;;;4.25;1.83;;;;;;;;;;5095043;28;20032;-34
2022/02/03 03:41:39;;;;;;;5.80;2.00;;;;;;;;;;5095194;28;20094;-34
2022/02/03 03:44:07;;;;;;;3.10;2.00;;;;;;;;;;5096551;28;20020;-34
2022/02/03 03:46:33;;;;;;;2.50;1.77;;;;;;;;;;5095291;28;20054;-34
2022/02/03 03:49:05;;;;;;;6.55;1.40;;;;;;;;;;5096140;28;20055;-34
2022/02/03 03:51:44;;;;;;;2.53;1.70;;;;;;;;;;5096061;28;20529;-34
2022/02/03 03:54:14;;;;;;;3.10;1.57;;;;;;;;;;5094697;28;20067;-34
2022/02/03 03:57:39;;;;;;;5.28;1.90;;;;;;;;;;5096112;28;20039;-34
2022/02/03 04:44:55;;;;;;;2.67;1.77;;;;;;;;;;5094794;28;20093;-35
2022/02/03 05:04:30;;;;;;;4.60;1.60;;;;;;;;;;5094773;28;20525;-35
2022/02/03 05:07:38;;;;;;;3.15;1.20;;;;;;;;;;5094619;28;20117;-35
2022/02/03 05:10:15;;;;;;;1.58;1.08;;;;;;;;;;5093974;28;20420;-35
2022/02/03 05:18:16;;;;;;;2.55;1.48;;;;;;;;;;5093751;28;20521;-36
2022/02/03 05:46:15;;;;;;;2.00;1.30;;;;;;;;;;5093368;28;20103;-35
2022/02/03 06:15:33;;;;;;;5.20;2.13;;;;;;;;;;5093534;28;20474;-35
2022/02/03 06:21:18;;;;;;;5.32;2.85;;;;;;;;;;5061622;28;20348;-35
2022/02/03 06:29:07;;;;;;;19.67;6.35;;;;;;;;;;5093024;28;20035;-34
2022/02/03 06:31:40;;;;;;;24.25;10.88;;;;;;;;;;5093307;28;20020;-35
2022/02/03 06:34:05;;;;;;;16.67;7.38;;;;;;;;;;5093112;28;20028;-35
2022/02/03 06:36:31;;;;;;;6.90;3.58;;;;;;;;;;5092935;28;20450;-35
2022/02/03 06:38:57;;;;;;;10.73;3.70;;;;;;;;;;5092882;28;20008;-36
2022/02/03 06:41:22;;;;;;;7.53;2.55;;;;;;;;;;5101122;28;20436;-35
2022/02/03 06:43:47;;;;;;;9.40;2.90;;;;;;;;;;5110767;28;20027;-35
2022/02/03 06:46:14;;;;;;;7.47;2.70;;;;;;;;;;5094489;28;20042;-35
2022/02/03 06:48:42;;;;;;;5.55;2.50;;;;;;;;;;5113361;28;20024;-36
2022/02/03 06:51:25;;;;;;;16.10;3.05;;;;;;;;;;5112514;28;20450;-36
2022/02/03 06:53:56;;;;;;;12.27;3.08;;;;;;;;;;5111622;28;20020;-35
2022/02/03 06:56:34;;;;;;;10.02;2.92;;;;;;;;;;5112530;28;20448;-34
2022/02/03 06:59:01;;;;;;;9.50;2.30;;;;;;;;;;5080945;28;20024;-34
2022/02/03 07:01:40;;;;;;;7.78;2.40;;;;;;;;;;5110313;28;20016;-35
2022/02/03 07:04:15;;;;;;;6.60;2.63;;;;;;;;;;5080786;28;20024;-35
2022/02/03 07:06:40;;;;;;;14.32;4.88;;;;;;;;;;5089991;28;20047;-34
2022/02/03 07:09:08;;;;;;;7.63;3.63;;;;;;;;;;5109749;28;20057;-35
2022/02/03 07:11:35;;;;;;;6.68;2.92;;;;;;;;;;5098786;28;20020;-34
2022/02/03 07:14:00;;;;;;;7.63;2.83;;;;;;;;;;5109191;28;20026;-39
2022/02/03 07:16:25;;;;;;;4.63;2.35;;;;;;;;;;5113174;28;20442;-34
2022/02/03 07:18:51;;;;;;;10.25;2.65;;;;;;;;;;5109585;28;20374;-35
2022/02/03 07:21:16;;;;;;;9.63;2.67;;;;;;;;;;5107679;28;20020;-36
2022/02/03 07:23:42;;;;;;;8.60;2.60;;;;;;;;;;5108715;27;20027;-34
2022/02/03 07:26:07;;;;;;;19.75;3.00;;;;;;;;;;5108576;28;20059;-36
2022/02/03 07:28:34;;;;;;;7.85;2.67;;;;;;;;;;5110318;28;20032;-34
2022/02/03 07:31:00;;;;;;;8.30;2.75;;;;;;;;;;5111575;28;20423;-35
2022/02/03 07:33:25;;;;;;;7.28;2.15;;;;;;;;;;5102909;28;20027;-34
2022/02/03 07:35:50;;;;;;;177.57;17.98;;;;;;;;;;5105362;28;20043;-35
2022/02/03 07:38:18;;;;;;;15.15;3.30;;;;;;;;;;5105984;28;20024;-34
2022/02/03 07:40:43;;;;;;;20.73;3.83;;;;;;;;;;5094227;28;20028;-34
2022/02/03 07:43:10;;;;;;;19.75;3.80;;;;;;;;;;5115646;28;20022;-35
2022/02/03 07:45:36;;;;;;;26.67;5.82;;;;;;;;;;5094197;28;20026;-34
2022/02/03 07:48:01;;;;;;;159.00;19.40;;;;;;;;;;5108601;28;20020;-35
2022/02/03 07:50:27;;;;;;;25.58;3.67;;;;;;;;;;5111766;28;20019;-34
2022/02/03 07:52:52;;;;;;;29.85;5.38;;;;;;;;;;5107916;28;20098;-38
2022/02/03 07:55:17;;;;;;;48.05;8.50;;;;;;;;;;5093880;28;20015;-34
2022/02/03 07:57:44;;;;;;;28.40;5.10;;;;;;;;;;5113334;28;20031;-36
2022/02/03 08:00:09;;;;;;;46.70;7.93;;;;;;;;;;5110256;28;20012;-34
2022/02/03 08:02:36;;;;;;;11.77;2.80;;;;;;;;;;5084641;28;20016;-34
2022/02/03 08:05:04;;;;;;;13.63;5.10;;;;;;;;;;5105915;28;20059;-34
2022/02/03 08:07:30;;;;;;;53.53;8.57;;;;;;;;;;5108684;28;20016;-33
2022/02/03 08:10:04;;;;;;;56.33;9.80;;;;;;;;;;5090489;28;20024;-34
2022/02/03 08:12:33;;;;;;;45.28;8.38;;;;;;;;;;5107400;28;20396;-40
2022/02/03 08:14:59;;;;;;;19.55;4.60;;;;;;;;;;5098701;28;20061;-47
2022/02/03 08:17:46;;;;;;;30.05;5.85;;;;;;;;;;5107912;28;20513;-43
2022/02/03 08:20:15;;;;;;;11.43;3.25;;;;;;;;;;5110905;28;20032;-44
2022/02/03 08:22:47;;;;;;;6.03;2.55;;;;;;;;;;5114123;28;20156;-43
2022/02/03 08:25:17;;;;;;;7.13;2.55;;;;;;;;;;5104379;28;20024;-43
2022/02/03 08:32:49;;;;;;;6.20;2.80;;;;;;;;;;5102925;28;20028;-43
2022/02/03 08:37:46;;;;;;;6.55;2.42;;;;;;;;;;5094251;28;20059;-43
2022/02/03 08:40:20;;;;;;;8.07;2.63;;;;;;;;;;5093823;28;20427;-44
2022/02/03 08:42:45;;;;;;;7.97;2.65;;;;;;;;;;5102319;28;20420;-44
2022/02/03 08:45:11;;;;;;;5.75;2.53;;;;;;;;;;5088916;28;20058;-44
2022/02/03 08:47:36;;;;;;;6.55;2.47;;;;;;;;;;5099008;28;20415;-45
2022/02/03 08:50:02;;;;;;;6.75;2.30;;;;;;;;;;5094553;28;20106;-44
2022/02/03 08:52:57;;;;;;;5.63;2.42;;;;;;;;;;5098847;28;20015;-45
2022/02/03 08:55:29;;;;;;;6.50;2.08;;;;;;;;;;5107691;28;20123;-45
2022/02/03 09:32:06;;;;;;;5.40;1.80;;;;;;;;;;5107384;28;20072;-45
2022/02/03 09:35:51;;;;;;;4.40;1.65;;;;;;;;;;5107496;28;20031;-44
2022/02/03 09:52:12;;;;;;;3.17;1.40;;;;;;;;;;5103162;28;20031;-44
2022/02/03 10:00:04;;;;;;;3.58;1.60;;;;;;;;;;5105636;28;20016;-47
2022/02/03 10:02:32;;;;;;;2.85;1.45;;;;;;;;;;5077910;28;20019;-46
2022/02/03 10:05:11;;;;;;;1.70;0.93;;;;;;;;;;5103456;28;20027;-44
2022/02/03 10:07:38;;;;;;;2.42;1.48;;;;;;;;;;5105855;28;20447;-44
2022/02/03 10:10:08;;;;;;;2.55;1.30;;;;;;;;;;5108799;28;20382;-46
2022/02/03 10:12:37;;;;;;;3.58;1.42;;;;;;;;;;5104670;28;20122;-43
2022/02/03 10:15:04;;;;;;;5.32;1.50;;;;;;;;;;5090906;28;20033;-43
2022/02/03 10:17:33;;;;;;;3.35;1.13;;;;;;;;;;5101254;28;20442;-43
2022/02/03 10:20:00;;;;;;;2.30;1.27;;;;;;;;;;5103442;28;20024;-43
2022/02/03 10:22:27;;;;;;;2.33;1.40;;;;;;;;;;5110847;28;20024;-43
2022/02/03 10:24:59;;;;;;;2.55;1.33;;;;;;;;;;5102422;28;20039;-45
2022/02/03 10:27:27;;;;;;;3.08;1.10;;;;;;;;;;5103668;28;20498;-43
2022/02/03 10:30:08;;;;;;;5.32;1.80;;;;;;;;;;5103348;28;20027;-44
2022/02/03 10:32:40;;;;;;;6.13;1.20;;;;;;;;;;5095273;28;20107;-48
2022/02/03 10:35:16;;;;;;;3.10;1.48;;;;;;;;;;5107399;28;20024;-45
2022/02/03 10:37:46;;;;;;;3.80;1.50;;;;;;;;;;5082552;28;20136;-45
2022/02/03 11:00:55;;;;;;;2.50;1.15;;;;;;;;;;5091267;28;20020;-45
2022/02/03 11:04:34;;;;;;;3.08;1.40;;;;;;;;;;5085733;28;20050;-44
2022/02/03 11:06:25;;;;;;;2.75;1.40;;;;;;;;;;5086862;28;20258;-44
2022/02/03 11:11:32;;;;;;;3.42;1.30;;;;;;;;;;5086491;28;20020;-44
2022/02/03 11:13:57;;;;;;;6.68;2.15;;;;;;;;;;5074216;28;20107;-43
2022/02/03 11:16:22;;;;;;;1.63;1.00;;;;;;;;;;5081583;28;20130;-46
2022/02/03 11:18:48;;;;;;;3.42;1.30;;;;;;;;;;5088873;28;20450;-45
2022/02/03 11:21:14;;;;;;;2.38;0.88;;;;;;;;;;5073976;28;20016;-45
2022/02/03 11:23:45;;;;;;;4.20;1.13;;;;;;;;;;5071407;28;20329;-37
2022/02/03 11:26:27;;;;;;;2.20;0.98;;;;;;;;;;5077744;28;20481;-35
2022/02/03 11:31:49;;;;;;;2.58;1.40;;;;;;;;;;5073106;28;20024;-35
2022/02/03 11:47:37;;;;;;;2.55;1.10;;;;;;;;;;5110242;28;20473;-35
2022/02/03 12:18:08;;;;;;;4.05;1.30;;;;;;;;;;5108677;28;20036;-36
2022/02/03 12:20:50;;;;;;;4.30;1.17;;;;;;;;;;5106468;28;20488;-36
2022/02/03 12:26:16;;;;;;;6.75;1.40;;;;;;;;;;5113562;28;20568;-35
2022/02/03 12:28:51;;;;;;;2.38;0.98;;;;;;;;;;5095437;28;20117;-36
2022/02/03 12:39:04;;;;;;;5.70;2.40;;;;;;;;;;5108553;28;20038;-34
2022/02/03 12:41:38;;;;;;;2.33;1.08;;;;;;;;;;5076740;28;20105;-34
2022/02/03 12:44:16;;;;;;;3.22;1.40;;;;;;;;;;5113049;28;20016;-35
2022/02/03 12:46:42;;;;;;;4.55;1.30;;;;;;;;;;5111520;28;20020;-35
2022/02/03 12:49:07;;;;;;;4.22;1.75;;;;;;;;;;5107179;28;20042;-35
2022/02/03 12:51:32;;;;;;;12.50;3.05;;;;;;;;;;5109678;28;20061;-35
2022/02/03 12:54:07;;;;;;;2.75;1.73;;;;;;;;;;5088940;28;20032;-37
2022/02/03 12:56:32;;;;;;;4.43;1.75;;;;;;;;;;5108382;28;20378;-34
2022/02/03 12:59:00;;;;;;;3.10;1.17;;;;;;;;;;5090941;28;20039;-35
2022/02/03 13:01:34;;;;;;;3.38;1.23;;;;;;;;;;5111214;28;20474;-34
2022/02/03 13:04:03;;;;;;;2.88;1.55;;;;;;;;;;5084555;28;20470;-35
2022/02/03 13:06:31;;;;;;;;;;;;;;;;;;5104528;28;20040;-43
2022/02/03 13:08:59;;;;;;;6.55;1.50;;;;;;;;;;5113824;28;19919;-34
2022/02/03 13:16:50;;;;;;;3.17;1.50;;;;;;;;;;5098919;28;20050;-34
2022/02/03 13:19:27;;;;;;;3.72;1.30;;;;;;;;;;5090374;28;20456;-35
2022/02/03 13:24:39;;;;;;;2.72;1.15;;;;;;;;;;5107796;28;20027;-34
2022/02/03 13:27:24;;;;;;;2.08;1.15;;;;;;;;;;5097761;28;20050;-35
2022/02/03 13:32:24;;;;;;;4.30;1.30;;;;;;;;;;5103295;28;21069;-35
2022/02/03 13:35:03;;;;;;;3.90;1.38;;;;;;;;;;5102213;28;20519;-34
2022/02/03 13:37:36;;;;;;;8.57;2.20;;;;;;;;;;5111288;28;20043;-35
2022/02/03 13:40:14;;;;;;;3.05;1.70;;;;;;;;;;5080688;28;20135;-35
2022/02/03 13:42:46;;;;;;;3.70;1.25;;;;;;;;;;5111223;28;20055;-35
2022/02/03 13:45:13;;;;;;;4.03;1.85;;;;;;;;;;5085457;28;20062;-35
2022/02/03 13:47:38;;;;;;;2.90;2.03;;;;;;;;;;5080841;28;20020;-38
2022/02/03 13:50:04;;;;;;;7.60;1.50;;;;;;;;;;5091278;28;20033;-36
2022/02/03 13:52:34;;;;;;;8.85;1.92;;;;;;;;;;5110264;28;20054;-36
2022/02/03 14:22:39;;;;;;;4.88;1.70;;;;;;;;;;5105200;28;20094;-34
2022/02/03 14:27:51;;;;;;;4.30;1.80;;;;;;;;;;5101954;28;20101;-36
2022/02/03 14:30:18;;;;;;;6.80;1.95;;;;;;;;;;5106768;28;20093;-39
2022/02/03 14:32:44;;;;;;;8.85;3.22;;;;;;;;;;5109907;28;20020;-35
2022/02/03 14:35:11;;;;;;;8.43;2.03;;;;;;;;;;5108035;28;20032;-38
2022/02/03 14:37:47;;;;;;;5.18;2.00;;;;;;;;;;5083605;28;20083;-35
2022/02/03 14:42:54;;;;;;;6.38;2.17;;;;;;;;;;5074673;28;20048;-35
2022/02/03 14:45:19;;;;;;;9.88;3.08;;;;;;;;;;5089715;28;20097;-34
2022/02/03 14:47:44;;;;;;;9.38;2.70;;;;;;;;;;5086932;28;20062;-39
2022/02/03 14:50:11;;;;;;;10.27;2.50;;;;;;;;;;5092116;28;20020;-36
2022/02/03 14:52:57;;;;;;;7.28;2.35;;;;;;;;;;5075511;28;20020;-35
2022/02/03 14:58:16;;;;;;;4.90;2.42;;;;;;;;;;5084900;28;20047;-35
2022/02/03 15:00:45;;;;;;;8.52;2.67;;;;;;;;;;5079622;28;20036;-38
2022/02/03 15:03:10;;;;;;;8.38;2.10;;;;;;;;;;5076947;28;20047;-38
2022/02/03 15:05:37;;;;;;;5.28;2.13;;;;;;;;;;5084828;28;20358;-35
2022/02/03 15:08:05;;;;;;;8.48;2.30;;;;;;;;;;5085060;28;20467;-35
2022/02/03 15:13:13;;;;;;;12.20;2.55;;;;;;;;;;5081519;28;20451;-36
2022/02/03 15:15:38;;;;;;;10.48;2.67;;;;;;;;;;5087853;28;20152;-35
2022/02/03 15:18:03;;;;;;;7.03;2.53;;;;;;;;;;5086983;28;20490;-35
2022/02/03 15:20:30;;;;;;;6.75;2.95;;;;;;;;;;5087399;28;20024;-37
2022/02/03 15:22:55;;;;;;;7.95;2.92;;;;;;;;;;5084443;28;20024;-35
2022/02/03 15:25:21;;;;;;;10.25;3.20;;;;;;;;;;5088769;28;20387;-35
2022/02/03 15:27:46;;;;;;;6.32;3.42;;;;;;;;;;5089988;28;20070;-35
2022/02/03 15:30:12;;;;;;;11.30;4.25;;;;;;;;;;5084266;28;20028;-37
2022/02/03 15:32:42;;;;;;;44.85;9.70;;;;;;;;;;5087184;28;20020;-35
2022/02/03 15:35:11;;;;;;;32.30;8.02;;;;;;;;;;5099161;27;20040;-35
2022/02/03 15:37:37;;;;;;;37.88;10.55;;;;;;;;;;5102968;28;20138;-37
2022/02/03 15:40:07;;;;;;;48.47;12.02;;;;;;;;;;5096497;28;20063;-35
2022/02/03 15:42:38;;;;;;;39.10;10.75;;;;;;;;;;5116188;28;20059;-36
2022/02/03 15:45:05;;;;;;;40.45;12.35;;;;;;;;;;5114745;28;20049;-36
2022/02/03 15:47:36;;;;;;;39.88;11.05;;;;;;;;;;5096559;28;20047;-38
2022/02/03 16:03:59;;;;;;;32.88;8.13;;;;;;;;;;5066954;28;20035;-37
2022/02/03 16:17:20;;;;;;;42.53;10.70;;;;;;;;;;5114684;28;20070;-35
2022/02/03 16:24:54;;;;;;;52.75;13.57;;;;;;;;;;5113851;28;20023;-39
2022/02/03 16:54:02;;;;;;;42.88;14.32;;;;;;;;;;5114267;28;20070;-35
2022/02/03 16:56:28;;;;;;;52.42;16.65;;;;;;;;;;5096037;28;20126;-35
2022/02/03 16:58:54;;;;;;;58.75;16.50;;;;;;;;;;5114291;28;20038;-34
2022/02/03 17:01:19;;;;;;;49.35;18.92;;;;;;;;;;5113572;28;20024;-35
2022/02/03 17:03:45;;;;;;;66.63;22.42;;;;;;;;;;5096392;28;20024;-35
2022/02/03 17:06:12;;;;;;;61.22;21.60;;;;;;;;;;5096689;28;20153;-35
2022/02/03 17:08:38;;;;;;;69.03;26.95;;;;;;;;;;5114883;28;20076;-35
2022/02/03 17:11:03;;;;;;;63.95;22.98;;;;;;;;;;5110455;28;20494;-35
2022/02/03 17:13:28;;;;;;;61.80;22.17;;;;;;;;;;5092132;28;20028;-35
2022/02/03 17:15:54;;;;;;;60.00;24.55;;;;;;;;;;5092350;28;20027;-35
2022/02/03 17:18:19;;;;;;;58.67;24.73;;;;;;;;;;5093046;28;20447;-36
2022/02/03 17:20:46;;;;;;;73.15;26.90;;;;;;;;;;5092679;28;20099;-37
2022/02/03 17:23:16;;;;;;;83.53;28.38;;;;;;;;;;5092231;28;20024;-35
2022/02/03 17:28:17;;;;;;;61.08;20.70;;;;;;;;;;5093866;28;20027;-35
2022/02/03 18:11:04;;;;;;;71.30;25.33;;;;;;;;;;5092409;28;20027;-34
2022/02/03 18:49:01;;;;;;;72.68;31.60;;;;;;;;;;5093217;28;20576;-35
2022/02/03 18:53:17;;;;;;;69.75;29.30;;;;;;;;;;5092944;28;20055;-35
2022/02/03 19:00:49;;;;;;;72.13;30.08;;;;;;;;;;5092943;28;20107;-35
2022/02/03 19:09:23;;;;;;;73.88;32.22;;;;;;;;;;5092846;28;20081;-35
2022/02/03 19:14:52;;;;;;;69.78;30.90;;;;;;;;;;5097088;28;20118;-35
2022/02/03 19:23:10;;;;;;;98.57;34.85;;;;;;;;;;5096594;28;20074;-35
2022/02/03 20:01:18;;;;;;;61.13;23.73;;;;;;;;;;5096087;28;20463;-35
2022/02/03 20:06:14;;;;;;;57.88;20.50;;;;;;;;;;5096033;28;20122;-35
2022/02/03 20:08:50;;;;;;;45.28;19.88;;;;;;;;;;5094695;28;20028;-35
2022/02/03 20:11:20;;;;;;;52.80;22.67;;;;;;;;;;5094708;28;20109;-35
2022/02/03 20:13:47;;;;;;;59.13;25.17;;;;;;;;;;5094702;28;20489;-35
2022/02/03 20:16:21;;;;;;;57.40;26.35;;;;;;;;;;5094483;28;20485;-34
2022/02/03 20:18:47;;;;;;;61.97;24.60;;;;;;;;;;5094245;28;20016;-34
2022/02/03 20:21:12;;;;;;;66.35;27.17;;;;;;;;;;5095765;28;20031;-34
2022/02/03 20:23:42;;;;;;;59.50;25.23;;;;;;;;;;5094306;28;20016;-34
2022/02/03 20:26:08;;;;;;;57.78;24.20;;;;;;;;;;5095551;28;20020;-34
2022/02/03 20:28:33;;;;;;;50.65;22.60;;;;;;;;;;5095468;28;20062;-34
2022/02/03 20:30:59;;;;;;;72.00;25.77;;;;;;;;;;5095407;28;20047;-34
2022/02/03 20:33:24;;;;;;;62.88;28.88;;;;;;;;;;5095389;28;20056;-34
2022/02/03 20:35:49;;;;;;;53.90;22.63;;;;;;;;;;5094252;28;20078;-35
2022/02/03 20:38:15;;;;;;;45.75;20.65;;;;;;;;;;5095447;28;20063;-34
2022/02/03 20:40:44;;;;;;;41.10;19.55;;;;;;;;;;5095412;28;20016;-34
2022/02/03 20:43:09;;;;;;;;;;;;;;;;;;5095657;28;20024;-34
2022/02/03 20:45:35;;;;;;;44.17;19.60;;;;;;;;;;5095165;28;20377;-34
2022/02/03 20:48:00;;;;;;;45.67;19.88;;;;;;;;;;5094885;28;20237;-34
2022/02/03 20:50:26;;;;;;;65.72;22.63;;;;;;;;;;5095301;28;20049;-34
2022/02/03 20:52:51;;;;;;;35.80;18.10;;;;;;;;;;5095151;28;20063;-34
2022/02/03 20:55:17;;;;;;;37.88;16.05;;;;;;;;;;5095071;28;20077;-34
2022/02/03 20:57:42;;;;;;;38.85;16.30;;;;;;;;;;5093647;28;20028;-35
2022/02/03 21:00:22;;;;;;;32.20;15.63;;;;;;;;;;5094867;28;20020;-36
2022/02/03 21:03:06;;;;;;;30.50;15.50;;;;;;;;;;5093457;28;20481;-35
2022/02/03 21:05:31;;;;;;;35.10;16.20;;;;;;;;;;5093654;28;20020;-34
2022/02/03 21:07:57;;;;;;;32.38;15.73;;;;;;;;;;5094710;28;20074;-35
2022/02/03 21:10:27;;;;;;;31.40;13.98;;;;;;;;;;5094676;28;20528;-35
2022/02/03 21:12:55;;;;;;;32.15;14.70;;;;;;;;;;5093428;28;20058;-36
2022/02/03 21:15:24;;;;;;;33.88;16.35;;;;;;;;;;5093400;28;20024;-34
2022/02/03 21:17:50;;;;;;;33.22;15.55;;;;;;;;;;5094845;28;20390;-35
2022/02/03 21:20:18;;;;;;;34.08;14.90;;;;;;;;;;5094669;28;20060;-35
2022/02/03 21:22:43;;;;;;;29.67;15.18;;;;;;;;;;5093674;28;20092;-35
2022/02/03 21:25:33;;;;;;;33.90;14.73;;;;;;;;;;5093606;28;20076;-35
2022/02/03 21:28:05;;;;;;;32.22;14.48;;;;;;;;;;5093103;28;20015;-35
2022/02/03 21:30:30;;;;;;;29.88;14.65;;;;;;;;;;5093090;28;20128;-35
2022/02/03 21:32:56;;;;;;;37.83;15.75;;;;;;;;;;5094418;28;20106;-35
2022/02/03 21:35:22;;;;;;;38.22;14.15;;;;;;;;;;5094194;28;20082;-35
2022/02/03 21:37:50;;;;;;;34.67;14.13;;;;;;;;;;5094308;28;20142;-35
2022/02/03 21:40:16;;;;;;;28.53;13.90;;;;;;;;;;5092647;28;20138;-35
2022/02/03 21:42:41;;;;;;;33.90;14.50;;;;;;;;;;5094302;28;20106;-35
2022/02/03 21:45:07;;;;;;;31.85;14.68;;;;;;;;;;5092986;28;20012;-35
2022/02/03 21:47:33;;;;;;;33.67;14.80;;;;;;;;;;5094048;28;20027;-35
2022/02/03 21:49:59;;;;;;;30.63;14.80;;;;;;;;;;5094113;28;20490;-35
2022/02/03 21:52:33;;;;;;;31.80;13.77;;;;;;;;;;5093906;28;20520;-35
2022/02/03 21:54:59;;;;;;;30.02;14.30;;;;;;;;;;5093698;28;20027;-35
2022/02/03 21:57:24;;;;;;;31.10;13.82;;;;;;;;;;5093953;28;20028;-35
2022/02/03 21:59:52;;;;;;;29.92;13.43;;;;;;;;;;5093813;28;20465;-35
2022/02/03 22:02:17;;;;;;;28.02;13.10;;;;;;;;;;5093931;28;20020;-35
2022/02/03 22:04:42;;;;;;;27.75;13.32;;;;;;;;;;5093637;28;20496;-34
2022/02/03 22:07:07;;;;;;;23.60;11.88;;;;;;;;;;5092346;28;20455;-35
2022/02/03 22:09:34;;;;;;;22.98;10.82;;;;;;;;;;5093501;28;20020;-35
2022/02/03 22:12:00;;;;;;;22.23;11.00;;;;;;;;;;5093552;28;20474;-35
2022/02/03 22:14:25;;;;;;;29.00;12.30;;;;;;;;;;5093627;28;20020;-35
2022/02/03 22:16:53;;;;;;;22.75;10.10;;;;;;;;;;5093533;28;20067;-35
2022/02/03 22:19:18;;;;;;;22.10;11.15;;;;;;;;;;5092143;28;20118;-35
2022/02/03 22:21:53;;;;;;;22.75;9.68;;;;;;;;;;5093451;28;20096;-35
2022/02/03 22:46:04;;;;;;;24.50;9.07;;;;;;;;;;5093333;28;20051;-35
2022/02/03 22:48:30;;;;;;;20.48;9.77;;;;;;;;;;5093017;28;20027;-35
2022/02/03 22:50:56;;;;;;;21.35;9.45;;;;;;;;;;5091868;28;20028;-35
2022/02/03 22:53:21;;;;;;;16.70;9.30;;;;;;;;;;5092811;28;20153;-35
2022/02/03 22:55:47;;;;;;;22.98;10.10;;;;;;;;;;5091888;28;20043;-34
2022/02/03 22:58:40;;;;;;;17.58;9.43;;;;;;;;;;5093127;28;20058;-35
2022/02/03 23:01:02;;;;;;;20.92;9.40;;;;;;;;;;5092622;28;20038;-34
2022/02/03 23:03:28;;;;;;;19.13;9.48;;;;;;;;;;5091600;28;20039;-35
2022/02/03 23:05:54;;;;;;;21.13;9.52;;;;;;;;;;5093121;28;20047;-34
2022/02/03 23:08:28;;;;;;;20.55;9.15;;;;;;;;;;5091595;28;20028;-35
2022/02/03 23:16:18;;;;;;;19.27;8.40;;;;;;;;;;5092893;28;20115;-35
2022/02/03 23:21:39;;;;;;;23.17;9.35;;;;;;;;;;5092988;28;20024;-35
2022/02/03 23:23:57;;;;;;;14.10;6.85;;;;;;;;;;5092445;28;20074;-35
2022/02/03 23:26:25;;;;;;;16.65;6.90;;;;;;;;;;5092792;28;20024;-35
2022/02/03 23:28:56;;;;;;;16.80;7.07;;;;;;;;;;5092607;28;20020;-35
2022/02/03 23:31:22;;;;;;;16.77;6.95;;;;;;;;;;5092869;28;20024;-35
2022/02/03 23:33:47;;;;;;;16.38;6.53;;;;;;;;;;5092692;28;20516;-35
2022/02/03 23:36:12;;;;;;;20.40;7.20;;;;;;;;;;5090996;28;20020;-35
2022/02/03 23:39:18;;;;;;;21.10;6.93;;;;;;;;;;5092658;28;20059;-34
2022/02/03 23:47:36;;;;;;;12.40;6.22;;;;;;;;;;5075961;28;20026;-34
